Tallinn, Estonia
Current Conditions -  °F | °C
As of 11:20 PM on Friday 28 Nov 2014 (Local Time) from EETN Reporting Station
Light Snow Light Snow  
Wind Chill: -7°   Ceiling: Unl
Heat Index: -4°   Visibility: 6mi
Dew Point: -5°   Wind: 5mph
Humidity: 93%   Direction: 190°S
Pressure: 30.59"   Gusts: NA
Location:  59.44°N, 24.74°E
Report Text: EETN 282120Z 19004KT 150V220 9999 -SN SCT005 M04/M05 Q1036 R08/19//95 NOSIG
Loading
Personal Weather Stations






























Interactive Weather Map New forecast layout! Learn more

10-Day Weather Forecast

Advertisements
Track Severe Weather on mobile